Un día en 60 segundos8/5/26
Time Wind Dir Wind Spd Wind Gust Hum In Humidity Temp In Temp Raw Barom Tot Rain
° km/hr km/hr % % °C °C mb mm
0:00 174 0 5 47 75 22.2 15.1 1011.05 248.00
0:20 188 0 3 48 76 22.1 15.1 1010.91 248.00
0:40 199 0 5 48 76 22.1 15.2 1010.68 248.00
1:00 194 0 5 48 76 22.1 15.1 1010.51 248.00
1:20 181 0 8 48 76 22.1 14.9 1010.34 248.00
1:40 207 0 5 48 77 21.9 14.9 1010.54 248.00
2:00 180 0 5 49 77 21.9 14.8 1010.20 248.00
2:20 199 2 5 49 78 21.9 14.6 1010.37 248.00
2:40 205 0 5 49 78 21.8 14.6 1010.30 248.00
3:00 205 0 5 49 78 21.8 14.4 1010.14 248.00
3:20 181 2 5 49 78 21.7 14.2 1010.14 248.00
3:40 173 0 5 49 78 21.7 14.2 1009.90 248.00
4:00 170 2 8 49 79 21.6 14.1 1009.83 248.00
4:20 177 0 6 49 79 21.5 14.0 1009.80 248.00
4:40 175 0 3 49 79 21.4 13.7 1009.80 248.00
5:00 166 0 5 49 80 21.4 13.6 1009.56 248.00
5:20 158 3 6 49 81 21.3 13.6 1009.43 248.00
5:40 190 0 8 49 81 21.2 13.8 1009.39 248.00
6:00 202 0 8 50 81 21.2 13.8 1009.43 248.00
6:20 223 2 5 50 80 21.2 13.9 1009.36 248.00
6:40 209 0 0 50 81 21.2 13.8 1009.73 248.00
7:00 244 0 5 50 81 21.1 13.6 1009.63 248.00
7:20 265 0 5 50 81 20.9 13.3 1010.03 248.00
7:40 260 0 0 50 82 20.8 13.1 1010.20 248.00
8:00 263 0 5 50 82 20.8 13.6 1010.34 248.00
8:20 206 0 0 51 81 21.0 14.2 1010.54 248.00
8:40 130 0 0 50 79 21.2 14.8 1010.54 248.00
9:00 136 0 6 50 77 21.5 15.2 1010.71 248.00
9:20 220 2 5 50 76 21.9 15.8 1010.78 248.00
9:40 250 3 13 49 75 22.3 16.2 1011.08 248.00
10:00 227 5 14 48 72 22.7 16.6 1011.29 248.00
10:20 231 6 18 48 69 22.9 17.2 1011.18 248.00
10:40 242 3 19 47 65 23.1 17.3 1011.25 248.00
11:00 243 3 19 46 63 23.1 17.8 1011.42 248.00
11:20 177 3 19 45 58 23.1 18.3 1011.32 248.00
11:40 256 0 18 44 56 23.2 18.8 1011.08 248.00
12:00 239 5 18 44 54 23.4 19.5 1011.08 248.00
12:20 233 8 19 43 52 23.4 19.7 1010.88 248.00
12:40 248 5 16 43 52 23.4 20.2 1010.71 248.00
13:00 254 6 16 43 55 23.4 19.8 1010.74 248.00
13:20 238 6 16 43 53 23.3 19.9 1010.68 248.00
13:40 215 5 11 43 50 23.2 20.4 1010.51 248.00
14:00 265 3 14 42 51 23.1 20.5 1010.41 248.00
14:20 251 11 16 42 49 23.1 21.2 1010.17 248.00
14:40 179 3 14 42 47 23.2 21.6 1009.97 248.00
15:00 198 5 18 42 47 23.1 21.8 1009.63 248.00
15:20 194 2 14 41 45 23.1 21.9 1009.46 248.00
15:40 168 0 19 41 46 23.2 21.8 1009.32 248.00
16:00 216 0 19 41 46 23.1 21.9 1009.02 248.00
16:20 194 0 13 41 46 23.1 22.2 1008.78 248.00
16:40 261 11 14 42 45 23.2 22.8 1008.38 248.00
17:00 173 3 21 41 45 23.2 22.8 1007.97 248.00
17:20 205 11 19 41 46 23.2 22.9 1007.70 248.00
17:40 211 10 23 41 47 23.3 23.1 1007.60 248.00
18:00 223 14 23 41 47 23.4 23.0 1007.80 248.00
18:20 171 13 21 42 48 23.4 22.8 1007.53 248.00
18:40 201 14 16 41 49 23.4 22.4 1007.40 248.00
19:00 257 16 21 42 51 23.4 22.1 1007.40 248.00
19:20 269 16 19 42 52 23.4 21.5 1007.50 248.00
19:40 261 6 19 42 52 23.4 21.2 1007.50 248.00
20:00 267 5 19 42 54 23.3 20.6 1007.84 248.00
20:20 232 8 24 43 54 23.2 20.1 1007.90 248.00
20:40 241 8 18 42 53 23.1 19.6 1008.04 248.00
21:00 241 6 19 41 51 22.9 19.1 1008.24 248.00
21:20 248 5 18 42 56 22.7 18.4 1008.51 248.00
21:40 254 5 18 43 61 22.7 17.8 1008.55 248.00
22:00 268 13 18 43 64 22.6 17.4 1008.85 248.00
22:20 269 6 14 44 66 22.6 17.2 1008.95 248.00
22:40 274 5 11 45 68 22.5 17.1 1009.12 248.00
23:00 278 5 11 45 69 22.5 16.9 1009.29 248.00
23:20 249 0 11 46 69 22.4 16.7 1009.46 248.00
23:40 275 3 11 46 70 22.4 16.5 1009.29 248.00